Garnett, South Carolina
Current Conditions -  °F | °C
As of 1:15 AM on Saturday 20 Dec 2014 (Local Time) from KJYL Reporting Station
Moderate Rain Moderate Rain  
Wind Chill: 48°   Ceiling: 6000
Heat Index: 48°   Visibility: 7mi
Dew Point: 48°   Wind: 0mph
Humidity: 99%   Direction: NA
Pressure: 30.15"   Gusts: NA
Location:  32.61°N, 81.24°W
Report Text: KJYL 200615Z AUTO 00000KT 7SM RA SCT043 BKN060 OVC100 09/09 A3015 RMK AO2 T00910090
Loading
Personal Weather Stations






























Interactive Weather Map New forecast layout! Learn more

10-Day Weather Forecast

Advertisements
Track Severe Weather on mobile